sensor_id;sensor_type;location;lat;lon;timestamp;temperature;humidity
69747;DHT22;57018;50.278;19.134;2024-01-06T00:00:03;2.60;99.90
69747;DHT22;57018;50.278;19.134;2024-01-06T00:02:33;2.60;99.90
69747;DHT22;57018;50.278;19.134;2024-01-06T00:05:06;2.60;99.90
69747;DHT22;57018;50.278;19.134;2024-01-06T00:07:36;2.50;99.90
69747;DHT22;57018;50.278;19.134;2024-01-06T00:10:08;2.60;99.90
69747;DHT22;57018;50.278;19.134;2024-01-06T00:12:37;2.50;99.90
69747;DHT22;57018;50.278;19.134;2024-01-06T00:15:09;2.50;99.90
69747;DHT22;57018;50.278;19.134;2024-01-06T00:17:39;2.30;99.90
69747;DHT22;57018;50.278;19.134;2024-01-06T00:20:10;2.50;99.90
69747;DHT22;57018;50.278;19.134;2024-01-06T00:22:40;2.50;99.90
69747;DHT22;57018;50.278;19.134;2024-01-06T00:25:12;2.50;99.90
69747;DHT22;57018;50.278;19.134;2024-01-06T00:27:42;2.50;99.90
69747;DHT22;57018;50.278;19.134;2024-01-06T00:30:14;2.50;99.90
69747;DHT22;57018;50.278;19.134;2024-01-06T00:32:43;2.50;99.90
69747;DHT22;57018;50.278;19.134;2024-01-06T00:35:15;2.70;99.90
69747;DHT22;57018;50.278;19.134;2024-01-06T00:37:45;2.90;99.90
69747;DHT22;57018;50.278;19.134;2024-01-06T00:40:15;3.00;99.90
69747;DHT22;57018;50.278;19.134;2024-01-06T00:42:47;2.90;99.90
69747;DHT22;57018;50.278;19.134;2024-01-06T00:45:17;3.10;99.90
69747;DHT22;57018;50.278;19.134;2024-01-06T00:47:47;3.10;99.90
69747;DHT22;57018;50.278;19.134;2024-01-06T00:50:17;3.20;99.90
69747;DHT22;57018;50.278;19.134;2024-01-06T00:52:47;3.00;99.90
69747;DHT22;57018;50.278;19.134;2024-01-06T00:55:20;3.00;99.90
69747;DHT22;57018;50.278;19.134;2024-01-06T00:57:51;3.00;99.90
69747;DHT22;57018;50.278;19.134;2024-01-06T01:00:21;3.00;99.90
69747;DHT22;57018;50.278;19.134;2024-01-06T01:02:52;2.90;99.90
69747;DHT22;57018;50.278;19.134;2024-01-06T01:05:22;2.90;99.90
69747;DHT22;57018;50.278;19.134;2024-01-06T01:07:52;3.10;99.90
69747;DHT22;57018;50.278;19.134;2024-01-06T01:10:24;3.10;99.90
69747;DHT22;57018;50.278;19.134;2024-01-06T01:12:56;3.20;99.90
69747;DHT22;57018;50.278;19.134;2024-01-06T01:15:26;3.50;99.90
69747;DHT22;57018;50.278;19.134;2024-01-06T01:17:56;3.40;99.90
69747;DHT22;57018;50.278;19.134;2024-01-06T01:20:26;3.40;99.90
69747;DHT22;57018;50.278;19.134;2024-01-06T01:22:58;3.60;99.90
69747;DHT22;57018;50.278;19.134;2024-01-06T01:25:28;3.40;99.90
69747;DHT22;57018;50.278;19.134;2024-01-06T01:27:58;3.70;99.90
69747;DHT22;57018;50.278;19.134;2024-01-06T01:30:28;3.50;99.90
69747;DHT22;57018;50.278;19.134;2024-01-06T01:32:58;3.60;99.90
69747;DHT22;57018;50.278;19.134;2024-01-06T01:35:28;3.60;99.90
69747;DHT22;57018;50.278;19.134;2024-01-06T01:37:58;3.60;99.90
69747;DHT22;57018;50.278;19.134;2024-01-06T01:40:28;3.50;99.90
69747;DHT22;57018;50.278;19.134;2024-01-06T01:43:00;3.50;99.90
69747;DHT22;57018;50.278;19.134;2024-01-06T01:45:30;3.60;99.90
69747;DHT22;57018;50.278;19.134;2024-01-06T01:48:00;3.50;99.90
69747;DHT22;57018;50.278;19.134;2024-01-06T01:50:30;3.50;99.90
69747;DHT22;57018;50.278;19.134;2024-01-06T01:53:00;3.50;99.90
69747;DHT22;57018;50.278;19.134;2024-01-06T01:55:30;3.40;99.90
69747;DHT22;57018;50.278;19.134;2024-01-06T01:58:01;3.50;99.90
69747;DHT22;57018;50.278;19.134;2024-01-06T02:00:31;3.40;99.90
69747;DHT22;57018;50.278;19.134;2024-01-06T02:03:02;3.40;99.90
69747;DHT22;57018;50.278;19.134;2024-01-06T02:05:32;3.50;99.90
69747;DHT22;57018;50.278;19.134;2024-01-06T02:08:03;3.60;99.90
69747;DHT22;57018;50.278;19.134;2024-01-06T02:10:33;3.80;99.90
69747;DHT22;57018;50.278;19.134;2024-01-06T02:13:10;3.70;99.90
69747;DHT22;57018;50.278;19.134;2024-01-06T02:15:40;3.80;99.90
69747;DHT22;57018;50.278;19.134;2024-01-06T02:18:10;4.00;99.90
69747;DHT22;57018;50.278;19.134;2024-01-06T02:20:43;3.80;99.90
69747;DHT22;57018;50.278;19.134;2024-01-06T02:23:13;4.00;99.90
69747;DHT22;57018;50.278;19.134;2024-01-06T02:25:43;4.00;99.90
69747;DHT22;57018;50.278;19.134;2024-01-06T02:28:12;4.00;99.90
69747;DHT22;57018;50.278;19.134;2024-01-06T02:30:43;4.10;99.90
69747;DHT22;57018;50.278;19.134;2024-01-06T02:33:12;3.90;99.90
69747;DHT22;57018;50.278;19.134;2024-01-06T02:35:43;3.80;99.90
69747;DHT22;57018;50.278;19.134;2024-01-06T02:38:13;3.90;99.90
69747;DHT22;57018;50.278;19.134;2024-01-06T02:40:43;4.00;99.90
69747;DHT22;57018;50.278;19.134;2024-01-06T02:43:13;3.90;99.90
69747;DHT22;57018;50.278;19.134;2024-01-06T02:45:43;3.90;99.90
69747;DHT22;57018;50.278;19.134;2024-01-06T02:48:13;3.70;99.90
69747;DHT22;57018;50.278;19.134;2024-01-06T02:50:42;3.80;99.90
69747;DHT22;57018;50.278;19.134;2024-01-06T02:53:15;3.80;99.90
69747;DHT22;57018;50.278;19.134;2024-01-06T02:55:44;3.70;99.90
69747;DHT22;57018;50.278;19.134;2024-01-06T02:58:14;3.90;99.90
69747;DHT22;57018;50.278;19.134;2024-01-06T03:00:44;3.90;99.90
69747;DHT22;57018;50.278;19.134;2024-01-06T03:03:14;3.90;99.90
69747;DHT22;57018;50.278;19.134;2024-01-06T03:05:44;3.80;99.90
69747;DHT22;57018;50.278;19.134;2024-01-06T03:08:17;3.80;99.90
69747;DHT22;57018;50.278;19.134;2024-01-06T03:10:47;3.90;99.90
69747;DHT22;57018;50.278;19.134;2024-01-06T03:13:17;3.80;99.90
69747;DHT22;57018;50.278;19.134;2024-01-06T03:15:46;3.80;99.90
69747;DHT22;57018;50.278;19.134;2024-01-06T03:18:16;3.80;99.90
69747;DHT22;57018;50.278;19.134;2024-01-06T03:20:47;3.80;99.90
69747;DHT22;57018;50.278;19.134;2024-01-06T03:23:16;3.90;99.90
69747;DHT22;57018;50.278;19.134;2024-01-06T03:25:46;3.70;99.90
69747;DHT22;57018;50.278;19.134;2024-01-06T03:28:16;3.80;99.90
69747;DHT22;57018;50.278;19.134;2024-01-06T03:30:48;3.80;99.90
69747;DHT22;57018;50.278;19.134;2024-01-06T03:33:20;3.80;99.90
69747;DHT22;57018;50.278;19.134;2024-01-06T03:35:53;3.90;99.90
69747;DHT22;57018;50.278;19.134;2024-01-06T03:38:22;3.80;99.90
69747;DHT22;57018;50.278;19.134;2024-01-06T03:40:53;3.80;99.90
69747;DHT22;57018;50.278;19.134;2024-01-06T03:43:23;3.90;99.90
69747;DHT22;57018;50.278;19.134;2024-01-06T03:45:55;3.60;99.90
69747;DHT22;57018;50.278;19.134;2024-01-06T03:48:26;3.80;99.90
69747;DHT22;57018;50.278;19.134;2024-01-06T03:50:56;3.80;99.90
69747;DHT22;57018;50.278;19.134;2024-01-06T03:53:26;4.10;99.90
69747;DHT22;57018;50.278;19.134;2024-01-06T03:55:55;3.90;99.90
69747;DHT22;57018;50.278;19.134;2024-01-06T03:58:25;3.70;99.90
69747;DHT22;57018;50.278;19.134;2024-01-06T04:00:58;4.00;99.90
69747;DHT22;57018;50.278;19.134;2024-01-06T04:03:27;3.80;99.90
69747;DHT22;57018;50.278;19.134;2024-01-06T04:05:57;4.10;99.90
69747;DHT22;57018;50.278;19.134;2024-01-06T04:08:29;4.00;99.90
69747;DHT22;57018;50.278;19.134;2024-01-06T04:10:59;3.90;99.90
69747;DHT22;57018;50.278;19.134;2024-01-06T04:13:34;4.20;99.90
69747;DHT22;57018;50.278;19.134;2024-01-06T04:16:05;4.10;99.90
69747;DHT22;57018;50.278;19.134;2024-01-06T04:18:36;4.10;99.90
69747;DHT22;57018;50.278;19.134;2024-01-06T04:21:06;4.10;99.90
69747;DHT22;57018;50.278;19.134;2024-01-06T04:23:37;4.10;99.90
69747;DHT22;57018;50.278;19.134;2024-01-06T04:26:07;4.30;99.90
69747;DHT22;57018;50.278;19.134;2024-01-06T04:28:37;4.30;99.90
69747;DHT22;57018;50.278;19.134;2024-01-06T04:31:07;4.30;99.90
69747;DHT22;57018;50.278;19.134;2024-01-06T04:33:36;4.50;99.90
69747;DHT22;57018;50.278;19.134;2024-01-06T04:36:09;4.60;99.90
69747;DHT22;57018;50.278;19.134;2024-01-06T04:38:37;4.40;99.90
69747;DHT22;57018;50.278;19.134;2024-01-06T04:41:09;4.50;99.90
69747;DHT22;57018;50.278;19.134;2024-01-06T04:43:38;4.40;99.90
69747;DHT22;57018;50.278;19.134;2024-01-06T04:46:11;4.40;99.90
69747;DHT22;57018;50.278;19.134;2024-01-06T04:48:44;4.50;99.90
69747;DHT22;57018;50.278;19.134;2024-01-06T04:51:15;4.50;99.90
69747;DHT22;57018;50.278;19.134;2024-01-06T04:53:45;4.60;99.90
69747;DHT22;57018;50.278;19.134;2024-01-06T04:56:15;4.50;99.90
69747;DHT22;57018;50.278;19.134;2024-01-06T04:58:45;4.40;99.90
69747;DHT22;57018;50.278;19.134;2024-01-06T05:01:15;4.50;99.90
69747;DHT22;57018;50.278;19.134;2024-01-06T05:03:46;4.30;99.90
69747;DHT22;57018;50.278;19.134;2024-01-06T05:06:16;4.30;99.90
69747;DHT22;57018;50.278;19.134;2024-01-06T05:08:46;4.40;99.90
69747;DHT22;57018;50.278;19.134;2024-01-06T05:11:16;4.10;99.90
69747;DHT22;57018;50.278;19.134;2024-01-06T05:13:46;4.20;99.90
69747;DHT22;57018;50.278;19.134;2024-01-06T05:16:18;4.30;99.90
69747;DHT22;57018;50.278;19.134;2024-01-06T05:18:48;4.30;99.90
69747;DHT22;57018;50.278;19.134;2024-01-06T05:21:18;4.30;99.90
69747;DHT22;57018;50.278;19.134;2024-01-06T05:23:48;4.60;99.90
69747;DHT22;57018;50.278;19.134;2024-01-06T05:26:18;4.20;99.90
69747;DHT22;57018;50.278;19.134;2024-01-06T05:28:48;4.30;99.90
69747;DHT22;57018;50.278;19.134;2024-01-06T05:31:18;4.30;99.90
69747;DHT22;57018;50.278;19.134;2024-01-06T05:33:48;4.30;99.90
69747;DHT22;57018;50.278;19.134;2024-01-06T05:36:21;4.20;99.90
69747;DHT22;57018;50.278;19.134;2024-01-06T05:38:51;4.40;99.90
69747;DHT22;57018;50.278;19.134;2024-01-06T05:41:21;4.20;99.90
69747;DHT22;57018;50.278;19.134;2024-01-06T05:43:51;4.30;99.90
69747;DHT22;57018;50.278;19.134;2024-01-06T05:46:25;4.60;99.90
69747;DHT22;57018;50.278;19.134;2024-01-06T05:48:55;4.50;99.90
69747;DHT22;57018;50.278;19.134;2024-01-06T05:51:28;4.50;99.90
69747;DHT22;57018;50.278;19.134;2024-01-06T05:53:58;4.60;99.90
69747;DHT22;57018;50.278;19.134;2024-01-06T05:56:28;4.50;99.90
69747;DHT22;57018;50.278;19.134;2024-01-06T05:58:58;4.50;99.90
69747;DHT22;57018;50.278;19.134;2024-01-06T06:01:28;4.60;99.90
69747;DHT22;57018;50.278;19.134;2024-01-06T06:03:58;4.50;99.90
69747;DHT22;57018;50.278;19.134;2024-01-06T06:06:28;4.50;99.90
69747;DHT22;57018;50.278;19.134;2024-01-06T06:08:58;4.70;99.90
69747;DHT22;57018;50.278;19.134;2024-01-06T06:11:27;4.60;99.90
69747;DHT22;57018;50.278;19.134;2024-01-06T06:13:57;4.70;99.90
69747;DHT22;57018;50.278;19.134;2024-01-06T06:16:27;5.00;99.90
69747;DHT22;57018;50.278;19.134;2024-01-06T06:18:58;5.00;99.90
69747;DHT22;57018;50.278;19.134;2024-01-06T06:21:28;4.80;99.90
69747;DHT22;57018;50.278;19.134;2024-01-06T06:23:58;5.00;99.90
69747;DHT22;57018;50.278;19.134;2024-01-06T06:26:28;4.90;99.90
69747;DHT22;57018;50.278;19.134;2024-01-06T06:28:58;5.00;99.90
69747;DHT22;57018;50.278;19.134;2024-01-06T06:31:29;4.90;99.90
69747;DHT22;57018;50.278;19.134;2024-01-06T06:33:59;4.90;99.90
69747;DHT22;57018;50.278;19.134;2024-01-06T06:36:29;5.10;99.90
69747;DHT22;57018;50.278;19.134;2024-01-06T06:39:02;5.00;99.90
69747;DHT22;57018;50.278;19.134;2024-01-06T06:41:32;5.00;99.90
69747;DHT22;57018;50.278;19.134;2024-01-06T06:44:03;4.90;99.90
69747;DHT22;57018;50.278;19.134;2024-01-06T06:46:33;4.90;99.90
69747;DHT22;57018;50.278;19.134;2024-01-06T06:49:03;5.10;99.90
69747;DHT22;57018;50.278;19.134;2024-01-06T06:51:33;5.00;99.90
69747;DHT22;57018;50.278;19.134;2024-01-06T06:54:04;5.10;99.90
69747;DHT22;57018;50.278;19.134;2024-01-06T06:56:33;5.10;99.90
69747;DHT22;57018;50.278;19.134;2024-01-06T06:59:03;5.20;99.90
69747;DHT22;57018;50.278;19.134;2024-01-06T07:01:33;5.20;99.90
69747;DHT22;57018;50.278;19.134;2024-01-06T07:04:04;5.30;99.90
69747;DHT22;57018;50.278;19.134;2024-01-06T07:06:34;5.20;99.90
69747;DHT22;57018;50.278;19.134;2024-01-06T07:09:06;5.10;99.90
69747;DHT22;57018;50.278;19.134;2024-01-06T07:11:38;5.10;99.90
69747;DHT22;57018;50.278;19.134;2024-01-06T07:14:10;5.30;99.90
69747;DHT22;57018;50.278;19.134;2024-01-06T07:16:40;5.10;99.90
69747;DHT22;57018;50.278;19.134;2024-01-06T07:19:13;5.20;99.90
69747;DHT22;57018;50.278;19.134;2024-01-06T07:21:48;4.90;99.90
69747;DHT22;57018;50.278;19.134;2024-01-06T07:24:18;5.20;99.90
69747;DHT22;57018;50.278;19.134;2024-01-06T07:26:47;5.20;99.90
69747;DHT22;57018;50.278;19.134;2024-01-06T07:29:17;5.20;99.90
69747;DHT22;57018;50.278;19.134;2024-01-06T07:31:48;5.40;99.90
69747;DHT22;57018;50.278;19.134;2024-01-06T07:34:20;5.20;99.90
69747;DHT22;57018;50.278;19.134;2024-01-06T07:36:50;5.20;99.90
69747;DHT22;57018;50.278;19.134;2024-01-06T07:39:24;5.30;99.90
69747;DHT22;57018;50.278;19.134;2024-01-06T07:41:54;5.40;99.90
69747;DHT22;57018;50.278;19.134;2024-01-06T07:44:26;5.60;99.90
69747;DHT22;57018;50.278;19.134;2024-01-06T07:46:56;5.40;99.90
69747;DHT22;57018;50.278;19.134;2024-01-06T07:49:26;5.80;99.90
69747;DHT22;57018;50.278;19.134;2024-01-06T07:51:59;5.70;99.90
69747;DHT22;57018;50.278;19.134;2024-01-06T07:54:29;5.90;99.90
69747;DHT22;57018;50.278;19.134;2024-01-06T07:56:59;5.90;99.90
69747;DHT22;57018;50.278;19.134;2024-01-06T07:59:30;6.00;99.90
69747;DHT22;57018;50.278;19.134;2024-01-06T08:02:00;6.10;99.90
69747;DHT22;57018;50.278;19.134;2024-01-06T08:04:30;6.30;99.90
69747;DHT22;57018;50.278;19.134;2024-01-06T08:07:00;6.20;99.90
69747;DHT22;57018;50.278;19.134;2024-01-06T08:09:30;6.30;99.90
69747;DHT22;57018;50.278;19.134;2024-01-06T08:12:00;6.40;99.90
69747;DHT22;57018;50.278;19.134;2024-01-06T08:14:32;6.60;99.90
69747;DHT22;57018;50.278;19.134;2024-01-06T08:17:02;6.50;99.90
69747;DHT22;57018;50.278;19.134;2024-01-06T08:19:32;6.40;99.90
69747;DHT22;57018;50.278;19.134;2024-01-06T08:22:03;6.60;99.90
69747;DHT22;57018;50.278;19.134;2024-01-06T08:24:33;6.60;99.90
69747;DHT22;57018;50.278;19.134;2024-01-06T08:27:06;6.50;99.90
69747;DHT22;57018;50.278;19.134;2024-01-06T08:29:36;6.10;99.90
69747;DHT22;57018;50.278;19.134;2024-01-06T08:32:07;6.30;99.90
69747;DHT22;57018;50.278;19.134;2024-01-06T08:34:38;6.40;99.90
69747;DHT22;57018;50.278;19.134;2024-01-06T08:37:08;6.30;99.90
69747;DHT22;57018;50.278;19.134;2024-01-06T08:39:38;6.40;99.90
69747;DHT22;57018;50.278;19.134;2024-01-06T08:42:09;6.30;99.90
69747;DHT22;57018;50.278;19.134;2024-01-06T08:44:38;6.50;99.90
69747;DHT22;57018;50.278;19.134;2024-01-06T08:47:08;6.50;99.90
69747;DHT22;57018;50.278;19.134;2024-01-06T08:49:38;6.60;99.90
69747;DHT22;57018;50.278;19.134;2024-01-06T08:52:08;6.80;99.90
69747;DHT22;57018;50.278;19.134;2024-01-06T08:54:38;6.80;99.90
69747;DHT22;57018;50.278;19.134;2024-01-06T08:57:08;7.00;99.90
69747;DHT22;57018;50.278;19.134;2024-01-06T08:59:38;7.00;99.90
69747;DHT22;57018;50.278;19.134;2024-01-06T09:02:08;6.80;99.90
69747;DHT22;57018;50.278;19.134;2024-01-06T09:04:38;7.10;99.90
69747;DHT22;57018;50.278;19.134;2024-01-06T09:07:08;7.20;99.90
69747;DHT22;57018;50.278;19.134;2024-01-06T09:09:39;7.10;99.90
69747;DHT22;57018;50.278;19.134;2024-01-06T09:12:09;7.30;99.90
69747;DHT22;57018;50.278;19.134;2024-01-06T09:14:40;7.30;99.90
69747;DHT22;57018;50.278;19.134;2024-01-06T09:17:10;7.50;99.90
69747;DHT22;57018;50.278;19.134;2024-01-06T09:19:39;7.40;99.90
69747;DHT22;57018;50.278;19.134;2024-01-06T09:22:09;7.40;99.90
69747;DHT22;57018;50.278;19.134;2024-01-06T09:24:39;7.40;99.90
69747;DHT22;57018;50.278;19.134;2024-01-06T09:27:09;7.50;99.90
69747;DHT22;57018;50.278;19.134;2024-01-06T09:29:39;7.30;99.90
69747;DHT22;57018;50.278;19.134;2024-01-06T09:32:10;7.40;99.90
69747;DHT22;57018;50.278;19.134;2024-01-06T09:34:41;7.50;99.90
69747;DHT22;57018;50.278;19.134;2024-01-06T09:37:11;7.40;99.90
69747;DHT22;57018;50.278;19.134;2024-01-06T09:39:42;7.40;99.90
69747;DHT22;57018;50.278;19.134;2024-01-06T09:42:12;7.30;99.90
69747;DHT22;57018;50.278;19.134;2024-01-06T09:44:42;7.50;99.90
69747;DHT22;57018;50.278;19.134;2024-01-06T09:47:13;7.20;99.90
69747;DHT22;57018;50.278;19.134;2024-01-06T09:49:48;7.40;99.90
69747;DHT22;57018;50.278;19.134;2024-01-06T09:52:22;7.40;99.90
69747;DHT22;57018;50.278;19.134;2024-01-06T09:54:54;7.40;99.90
69747;DHT22;57018;50.278;19.134;2024-01-06T09:57:25;7.60;99.90
69747;DHT22;57018;50.278;19.134;2024-01-06T09:59:56;7.60;99.90
69747;DHT22;57018;50.278;19.134;2024-01-06T10:02:28;7.60;99.90
69747;DHT22;57018;50.278;19.134;2024-01-06T10:05:00;7.50;99.90
69747;DHT22;57018;50.278;19.134;2024-01-06T10:07:32;7.60;99.90
69747;DHT22;57018;50.278;19.134;2024-01-06T10:10:03;7.50;99.90
69747;DHT22;57018;50.278;19.134;2024-01-06T10:12:33;7.50;99.90
69747;DHT22;57018;50.278;19.134;2024-01-06T10:15:03;7.70;99.90
69747;DHT22;57018;50.278;19.134;2024-01-06T10:17:37;7.70;99.90
69747;DHT22;57018;50.278;19.134;2024-01-06T10:20:11;7.70;99.90
69747;DHT22;57018;50.278;19.134;2024-01-06T10:22:42;8.00;99.90
69747;DHT22;57018;50.278;19.134;2024-01-06T10:25:15;7.90;99.90
69747;DHT22;57018;50.278;19.134;2024-01-06T10:27:45;7.80;99.90
69747;DHT22;57018;50.278;19.134;2024-01-06T10:30:15;7.80;99.90
69747;DHT22;57018;50.278;19.134;2024-01-06T10:32:49;7.70;99.90
69747;DHT22;57018;50.278;19.134;2024-01-06T10:35:19;7.80;99.90
69747;DHT22;57018;50.278;19.134;2024-01-06T10:37:49;7.80;99.90
69747;DHT22;57018;50.278;19.134;2024-01-06T10:40:21;7.70;99.90
69747;DHT22;57018;50.278;19.134;2024-01-06T10:42:51;7.80;99.90
69747;DHT22;57018;50.278;19.134;2024-01-06T10:45:21;7.80;99.90
69747;DHT22;57018;50.278;19.134;2024-01-06T10:47:51;7.90;99.90
69747;DHT22;57018;50.278;19.134;2024-01-06T10:50:23;7.50;99.90
69747;DHT22;57018;50.278;19.134;2024-01-06T10:52:53;7.50;99.90
69747;DHT22;57018;50.278;19.134;2024-01-06T10:55:26;7.60;99.90
69747;DHT22;57018;50.278;19.134;2024-01-06T10:57:57;7.50;99.90
69747;DHT22;57018;50.278;19.134;2024-01-06T11:00:28;7.50;99.90
69747;DHT22;57018;50.278;19.134;2024-01-06T11:03:01;7.50;99.90
69747;DHT22;57018;50.278;19.134;2024-01-06T11:05:32;7.60;99.90
69747;DHT22;57018;50.278;19.134;2024-01-06T11:08:03;7.40;99.90
69747;DHT22;57018;50.278;19.134;2024-01-06T11:10:34;7.50;99.90
69747;DHT22;57018;50.278;19.134;2024-01-06T11:13:13;7.70;99.90
69747;DHT22;57018;50.278;19.134;2024-01-06T11:15:46;7.80;99.90
69747;DHT22;57018;50.278;19.134;2024-01-06T11:18:36;7.80;99.90
69747;DHT22;57018;50.278;19.134;2024-01-06T11:21:22;7.70;99.90
69747;DHT22;57018;50.278;19.134;2024-01-06T11:24:18;8.00;99.90
69747;DHT22;57018;50.278;19.134;2024-01-06T11:26:56;8.10;99.90
69747;DHT22;57018;50.278;19.134;2024-01-06T11:29:27;8.30;99.90
69747;DHT22;57018;50.278;19.134;2024-01-06T11:32:17;8.20;99.90
69747;DHT22;57018;50.278;19.134;2024-01-06T11:35:05;8.10;99.90
69747;DHT22;57018;50.278;19.134;2024-01-06T11:37:51;8.30;99.90
69747;DHT22;57018;50.278;19.134;2024-01-06T11:40:30;8.20;99.90
69747;DHT22;57018;50.278;19.134;2024-01-06T11:43:03;8.10;99.90
69747;DHT22;57018;50.278;19.134;2024-01-06T11:45:34;8.10;99.90
69747;DHT22;57018;50.278;19.134;2024-01-06T11:48:06;8.20;99.90
69747;DHT22;57018;50.278;19.134;2024-01-06T11:50:37;8.20;99.90
69747;DHT22;57018;50.278;19.134;2024-01-06T11:53:13;8.20;99.90
69747;DHT22;57018;50.278;19.134;2024-01-06T11:55:44;7.90;99.90
69747;DHT22;57018;50.278;19.134;2024-01-06T11:58:15;7.70;99.90
69747;DHT22;57018;50.278;19.134;2024-01-06T12:00:56;7.80;99.90
69747;DHT22;57018;50.278;19.134;2024-01-06T12:03:26;7.80;99.90
69747;DHT22;57018;50.278;19.134;2024-01-06T12:06:03;7.80;99.90
69747;DHT22;57018;50.278;19.134;2024-01-06T12:08:36;7.60;99.90
69747;DHT22;57018;50.278;19.134;2024-01-06T12:11:07;7.60;99.90
69747;DHT22;57018;50.278;19.134;2024-01-06T12:13:37;7.70;99.90
69747;DHT22;57018;50.278;19.134;2024-01-06T12:16:08;7.60;99.90
69747;DHT22;57018;50.278;19.134;2024-01-06T12:18:38;7.50;99.90
69747;DHT22;57018;50.278;19.134;2024-01-06T12:21:08;7.70;99.90
69747;DHT22;57018;50.278;19.134;2024-01-06T12:23:38;7.80;99.90
69747;DHT22;57018;50.278;19.134;2024-01-06T12:26:11;7.70;99.90
69747;DHT22;57018;50.278;19.134;2024-01-06T12:28:41;7.70;99.90
69747;DHT22;57018;50.278;19.134;2024-01-06T12:31:13;7.80;99.90
69747;DHT22;57018;50.278;19.134;2024-01-06T12:33:43;7.80;99.90
69747;DHT22;57018;50.278;19.134;2024-01-06T12:36:14;7.90;99.90
69747;DHT22;57018;50.278;19.134;2024-01-06T12:38:45;7.60;99.90
69747;DHT22;57018;50.278;19.134;2024-01-06T12:41:16;7.60;99.90
69747;DHT22;57018;50.278;19.134;2024-01-06T12:43:48;7.60;99.90
69747;DHT22;57018;50.278;19.134;2024-01-06T12:46:18;7.50;99.90
69747;DHT22;57018;50.278;19.134;2024-01-06T12:48:48;7.40;99.90
69747;DHT22;57018;50.278;19.134;2024-01-06T12:51:18;7.20;99.90
69747;DHT22;57018;50.278;19.134;2024-01-06T12:53:51;7.30;99.90
69747;DHT22;57018;50.278;19.134;2024-01-06T12:56:21;7.10;99.90
69747;DHT22;57018;50.278;19.134;2024-01-06T12:58:53;7.20;99.90
69747;DHT22;57018;50.278;19.134;2024-01-06T13:01:26;7.10;99.90
69747;DHT22;57018;50.278;19.134;2024-01-06T13:03:58;7.10;99.90
69747;DHT22;57018;50.278;19.134;2024-01-06T13:06:29;6.90;99.90
69747;DHT22;57018;50.278;19.134;2024-01-06T13:09:00;6.80;99.90
69747;DHT22;57018;50.278;19.134;2024-01-06T13:11:33;6.70;99.90
69747;DHT22;57018;50.278;19.134;2024-01-06T13:14:04;6.70;99.90
69747;DHT22;57018;50.278;19.134;2024-01-06T13:16:34;6.60;99.90
69747;DHT22;57018;50.278;19.134;2024-01-06T13:19:05;6.70;99.90
69747;DHT22;57018;50.278;19.134;2024-01-06T13:21:35;6.60;99.90
69747;DHT22;57018;50.278;19.134;2024-01-06T13:24:08;6.60;99.90
69747;DHT22;57018;50.278;19.134;2024-01-06T13:26:39;6.50;99.90
69747;DHT22;57018;50.278;19.134;2024-01-06T13:29:08;6.70;99.90
69747;DHT22;57018;50.278;19.134;2024-01-06T13:31:38;6.60;99.90
69747;DHT22;57018;50.278;19.134;2024-01-06T13:34:09;6.30;99.90
69747;DHT22;57018;50.278;19.134;2024-01-06T13:36:39;6.20;99.90
69747;DHT22;57018;50.278;19.134;2024-01-06T13:39:09;6.20;99.90
69747;DHT22;57018;50.278;19.134;2024-01-06T13:41:45;6.20;99.90
69747;DHT22;57018;50.278;19.134;2024-01-06T13:44:16;6.10;99.90
69747;DHT22;57018;50.278;19.134;2024-01-06T13:46:46;5.90;99.90
69747;DHT22;57018;50.278;19.134;2024-01-06T13:49:17;6.00;99.90
69747;DHT22;57018;50.278;19.134;2024-01-06T13:51:47;6.10;99.90
69747;DHT22;57018;50.278;19.134;2024-01-06T13:54:17;6.10;99.90
69747;DHT22;57018;50.278;19.134;2024-01-06T13:56:47;6.00;99.90
69747;DHT22;57018;50.278;19.134;2024-01-06T13:59:17;5.80;99.90
69747;DHT22;57018;50.278;19.134;2024-01-06T14:01:47;5.60;99.90
69747;DHT22;57018;50.278;19.134;2024-01-06T14:04:20;5.60;99.90
69747;DHT22;57018;50.278;19.134;2024-01-06T14:06:52;5.80;99.90
69747;DHT22;57018;50.278;19.134;2024-01-06T14:09:24;5.60;99.90
69747;DHT22;57018;50.278;19.134;2024-01-06T14:11:54;5.70;99.90
69747;DHT22;57018;50.278;19.134;2024-01-06T14:14:24;5.70;99.90
69747;DHT22;57018;50.278;19.134;2024-01-06T14:16:55;5.70;99.90
69747;DHT22;57018;50.278;19.134;2024-01-06T14:19:25;5.50;99.90
69747;DHT22;57018;50.278;19.134;2024-01-06T14:21:57;5.50;99.90
69747;DHT22;57018;50.278;19.134;2024-01-06T14:24:27;5.70;99.90
69747;DHT22;57018;50.278;19.134;2024-01-06T14:26:57;5.70;99.90
69747;DHT22;57018;50.278;19.134;2024-01-06T14:29:27;5.60;99.90
69747;DHT22;57018;50.278;19.134;2024-01-06T14:31:56;5.40;99.90
69747;DHT22;57018;50.278;19.134;2024-01-06T14:34:26;5.50;99.90
69747;DHT22;57018;50.278;19.134;2024-01-06T14:36:56;5.40;99.90
69747;DHT22;57018;50.278;19.134;2024-01-06T14:39:26;5.30;99.90
69747;DHT22;57018;50.278;19.134;2024-01-06T14:41:56;5.30;99.90
69747;DHT22;57018;50.278;19.134;2024-01-06T14:44:29;5.30;99.90
69747;DHT22;57018;50.278;19.134;2024-01-06T14:47:03;5.20;99.90
69747;DHT22;57018;50.278;19.134;2024-01-06T14:49:40;5.20;99.90
69747;DHT22;57018;50.278;19.134;2024-01-06T14:52:12;5.20;99.90
69747;DHT22;57018;50.278;19.134;2024-01-06T14:54:43;5.10;99.90
69747;DHT22;57018;50.278;19.134;2024-01-06T14:57:13;5.20;99.90
69747;DHT22;57018;50.278;19.134;2024-01-06T14:59:45;5.20;99.90
69747;DHT22;57018;50.278;19.134;2024-01-06T15:02:27;5.20;99.90
69747;DHT22;57018;50.278;19.134;2024-01-06T15:04:57;5.10;99.90
69747;DHT22;57018;50.278;19.134;2024-01-06T15:07:28;5.20;99.90
69747;DHT22;57018;50.278;19.134;2024-01-06T15:10:00;5.20;99.90
69747;DHT22;57018;50.278;19.134;2024-01-06T15:12:34;5.00;99.90
69747;DHT22;57018;50.278;19.134;2024-01-06T15:15:06;4.80;99.90
69747;DHT22;57018;50.278;19.134;2024-01-06T15:17:37;4.90;99.90
69747;DHT22;57018;50.278;19.134;2024-01-06T15:20:09;4.90;99.90
69747;DHT22;57018;50.278;19.134;2024-01-06T15:22:39;4.80;99.90
69747;DHT22;57018;50.278;19.134;2024-01-06T15:25:09;5.00;99.90
69747;DHT22;57018;50.278;19.134;2024-01-06T15:27:39;4.70;99.90
69747;DHT22;57018;50.278;19.134;2024-01-06T15:30:10;4.70;99.90
69747;DHT22;57018;50.278;19.134;2024-01-06T15:32:42;4.80;99.90
69747;DHT22;57018;50.278;19.134;2024-01-06T15:35:12;4.90;99.90
69747;DHT22;57018;50.278;19.134;2024-01-06T15:37:42;4.80;99.90
69747;DHT22;57018;50.278;19.134;2024-01-06T15:40:12;4.70;99.90
69747;DHT22;57018;50.278;19.134;2024-01-06T15:42:44;4.80;99.90
69747;DHT22;57018;50.278;19.134;2024-01-06T15:45:15;4.80;99.90
69747;DHT22;57018;50.278;19.134;2024-01-06T15:47:45;4.90;99.90
69747;DHT22;57018;50.278;19.134;2024-01-06T15:50:15;4.60;99.90
69747;DHT22;57018;50.278;19.134;2024-01-06T15:52:47;4.90;99.90